BAW193 EGLL-KDFW
Flight info
| Callsign | BAW193 |
|---|---|
| Flight time | N/A |
| Altitude | 24000 |
| Route | CPT L9 DIDZA N14 ELNIF/N0487F340 DCT MEDOG DCT KRAGY DCT PEMOB DCT VATRY DCT RESNO/M085F350 DCT 56N020W 56N030W 56N040W 55N050W DCT LOMSI/N0496F360 N668A TAFFY DCT PQI DCT CABCI/N0478F380 Q29 NIPPY DCT WILET DCT REBBL DCT LEJOY DCT EMNEM Q71 GEFFS DCT TONIO DCT ARTUR DCT NIOLA DCT VLKNN Q30 IZAAC DCT YUYUN BEREE3 |
| Aircraft | A35K/H-SDE2E3GHIJ3J4J5LM1ORWXY/LB1D1 |
Departure
| Time | N/A |
|---|---|
| Airport | London Heathrow Airport (EGLL) |
Arrival
| Time | 2026-05-06 00:52 |
|---|---|
| Airport | Dallas Fort Worth International Airport (KDFW) |
| Time | Latitude | Longitude | Altitude | Speed | Heading |
|---|---|---|---|---|---|
| 2026-05-05 18:18 | 55.69641 | -44.07796 | 35979 ft | 508 kts | 257° |
| 2026-05-05 18:19 | 55.68880 | -44.16068 | 35971 ft | 508 kts | 257° |
| 2026-05-05 18:19 | 55.67926 | -44.26338 | 35970 ft | 508 kts | 256° |
| 2026-05-05 18:20 | 55.66773 | -44.38647 | 36390 ft | 503 kts | 257° |
| 2026-05-05 18:20 | 55.66197 | -44.44740 | 36705 ft | 501 kts | 257° |
| 2026-05-05 18:20 | 55.65620 | -44.50817 | 36938 ft | 499 kts | 257° |
| 2026-05-05 18:20 | 55.65041 | -44.56865 | 37137 ft | 499 kts | 257° |
| 2026-05-05 18:21 | 55.64457 | -44.62929 | 37355 ft | 499 kts | 257° |
| 2026-05-05 18:21 | 55.63872 | -44.68978 | 37490 ft | 499 kts | 257° |
| 2026-05-05 18:21 | 55.63283 | -44.75028 | 37639 ft | 499 kts | 257° |
| 2026-05-05 18:21 | 55.62693 | -44.81070 | 37779 ft | 499 kts | 257° |
| 2026-05-05 18:22 | 55.62099 | -44.87117 | 37898 ft | 499 kts | 257° |
| 2026-05-05 18:22 | 55.60895 | -44.99266 | 37937 ft | 504 kts | 257° |
| 2026-05-05 18:23 | 55.59670 | -45.11505 | 37931 ft | 505 kts | 257° |
| 2026-05-05 18:23 | 55.58434 | -45.23738 | 37929 ft | 505 kts | 257° |
| 2026-05-05 18:24 | 55.57188 | -45.35942 | 37916 ft | 504 kts | 257° |
| 2026-05-05 18:24 | 55.55931 | -45.48117 | 37909 ft | 504 kts | 257° |
| 2026-05-05 18:25 | 55.54661 | -45.60286 | 37915 ft | 504 kts | 256° |
| 2026-05-05 18:25 | 55.53379 | -45.72448 | 37890 ft | 505 kts | 256° |
| 2026-05-05 18:26 | 55.52081 | -45.84649 | 37894 ft | 506 kts | 256° |
| 2026-05-05 18:26 | 55.50771 | -45.96838 | 37887 ft | 505 kts | 256° |
| 2026-05-05 18:27 | 55.49452 | -46.08997 | 37869 ft | 504 kts | 256° |
| 2026-05-05 18:27 | 55.48122 | -46.21129 | 37861 ft | 504 kts | 256° |
| 2026-05-05 18:28 | 55.46106 | -46.39298 | 37863 ft | 504 kts | 256° |
| 2026-05-05 18:28 | 55.44748 | -46.51396 | 37850 ft | 504 kts | 256° |
| 2026-05-05 18:29 | 55.43378 | -46.63484 | 37845 ft | 503 kts | 255° |
| 2026-05-05 18:29 | 55.42008 | -46.75468 | 37849 ft | 502 kts | 255° |
| 2026-05-05 18:30 | 55.40619 | -46.87499 | 37825 ft | 502 kts | 256° |
| 2026-05-05 18:30 | 55.39217 | -46.99526 | 37836 ft | 502 kts | 255° |
| 2026-05-05 18:31 | 55.37804 | -47.11544 | 37820 ft | 502 kts | 255° |
| 2026-05-05 18:31 | 55.36377 | -47.23563 | 37822 ft | 501 kts | 255° |
| 2026-05-05 18:32 | 55.34945 | -47.35530 | 37811 ft | 500 kts | 256° |
| 2026-05-05 18:32 | 55.33503 | -47.47470 | 37801 ft | 500 kts | 255° |
| 2026-05-05 18:33 | 55.32048 | -47.59404 | 37803 ft | 500 kts | 255° |
| 2026-05-05 18:33 | 55.30580 | -47.71347 | 37788 ft | 501 kts | 255° |
| 2026-05-05 18:34 | 55.29099 | -47.83298 | 37812 ft | 501 kts | 255° |
| 2026-05-05 18:34 | 55.27608 | -47.95230 | 37791 ft | 500 kts | 255° |
| 2026-05-05 18:35 | 55.26111 | -48.07115 | 37771 ft | 499 kts | 254° |
| 2026-05-05 18:35 | 55.24601 | -48.18986 | 37770 ft | 499 kts | 254° |
| 2026-05-05 18:36 | 55.23078 | -48.30853 | 37770 ft | 499 kts | 254° |
| 2026-05-05 18:36 | 55.21545 | -48.42703 | 37761 ft | 499 kts | 255° |
| 2026-05-05 18:37 | 55.20000 | -48.54538 | 37748 ft | 498 kts | 254° |
| 2026-05-05 18:37 | 55.18450 | -48.66341 | 37750 ft | 498 kts | 253° |
| 2026-05-05 18:38 | 55.16883 | -48.78157 | 37736 ft | 499 kts | 255° |
| 2026-05-05 18:38 | 55.15305 | -48.89970 | 37735 ft | 499 kts | 254° |
| 2026-05-05 18:39 | 55.13727 | -49.01687 | 37727 ft | 499 kts | 254° |
| 2026-05-05 18:39 | 55.12129 | -49.13484 | 37728 ft | 498 kts | 254° |
| 2026-05-05 18:40 | 55.10524 | -49.25231 | 37714 ft | 497 kts | 253° |
| 2026-05-05 18:40 | 55.08911 | -49.36944 | 37714 ft | 496 kts | 254° |
| 2026-05-05 18:41 | 55.07283 | -49.48652 | 37710 ft | 496 kts | 254° |
| 2026-05-05 18:41 | 55.05643 | -49.60351 | 37697 ft | 497 kts | 253° |
| 2026-05-05 18:42 | 55.03989 | -49.72059 | 37699 ft | 498 kts | 253° |
| 2026-05-05 18:42 | 55.02327 | -49.83767 | 37695 ft | 496 kts | 253° |
| 2026-05-05 18:43 | 55.00656 | -49.95421 | 37687 ft | 496 kts | 254° |
| 2026-05-05 18:43 | 54.98391 | -50.06682 | 37687 ft | 492 kts | 245° |
| 2026-05-05 18:44 | 54.95767 | -50.17687 | 37685 ft | 492 kts | 245° |
| 2026-05-05 18:44 | 54.93085 | -50.28642 | 37682 ft | 492 kts | 245° |
| 2026-05-05 18:45 | 54.90400 | -50.39581 | 37667 ft | 492 kts | 245° |
| 2026-05-05 18:45 | 54.87738 | -50.50420 | 37667 ft | 491 kts | 245° |
| 2026-05-05 18:46 | 54.85049 | -50.61328 | 37663 ft | 492 kts | 244° |
| 2026-05-05 18:46 | 54.82344 | -50.72242 | 37661 ft | 493 kts | 244° |
| 2026-05-05 18:47 | 54.79624 | -50.83153 | 37659 ft | 493 kts | 244° |
| 2026-05-05 18:47 | 54.76900 | -50.94043 | 37650 ft | 492 kts | 245° |
| 2026-05-05 18:48 | 54.74171 | -51.04888 | 37650 ft | 491 kts | 244° |
| 2026-05-05 18:48 | 54.71440 | -51.15706 | 37651 ft | 491 kts | 244° |
| 2026-05-05 18:49 | 54.68700 | -51.26506 | 37638 ft | 491 kts | 244° |
| 2026-05-05 18:49 | 54.65947 | -51.37294 | 37641 ft | 490 kts | 244° |
| 2026-05-05 18:50 | 54.63194 | -51.48032 | 37628 ft | 489 kts | 244° |
| 2026-05-05 18:50 | 54.60433 | -51.58746 | 37629 ft | 489 kts | 244° |
| 2026-05-05 18:51 | 54.57662 | -51.69450 | 37630 ft | 489 kts | 244° |
| 2026-05-05 18:51 | 54.54875 | -51.80156 | 37630 ft | 490 kts | 244° |
| 2026-05-05 18:52 | 54.52083 | -51.90838 | 37623 ft | 489 kts | 244° |
| 2026-05-05 18:52 | 54.49285 | -52.01494 | 37616 ft | 489 kts | 244° |
| 2026-05-05 18:53 | 54.46481 | -52.12130 | 37615 ft | 488 kts | 244° |
| 2026-05-05 18:53 | 54.43668 | -52.22743 | 37616 ft | 488 kts | 244° |
| 2026-05-05 18:54 | 54.40848 | -52.33339 | 37609 ft | 487 kts | 244° |
| 2026-05-05 18:54 | 54.38017 | -52.43917 | 37602 ft | 487 kts | 244° |
| 2026-05-05 18:55 | 54.35181 | -52.54462 | 37602 ft | 487 kts | 244° |
| 2026-05-05 18:55 | 54.32334 | -52.65005 | 37598 ft | 487 kts | 244° |
| 2026-05-05 18:56 | 54.29481 | -52.75529 | 37598 ft | 487 kts | 244° |
| 2026-05-05 18:56 | 54.26615 | -52.86042 | 37595 ft | 487 kts | 244° |
| 2026-05-05 18:57 | 54.23741 | -52.96538 | 37587 ft | 487 kts | 244° |
| 2026-05-05 18:57 | 54.20855 | -53.07032 | 37591 ft | 488 kts | 244° |
| 2026-05-05 18:58 | 54.17956 | -53.17526 | 37594 ft | 489 kts | 244° |
| 2026-05-05 18:58 | 54.15058 | -53.27971 | 37595 ft | 490 kts | 244° |
| 2026-05-05 18:59 | 54.12132 | -53.38462 | 37590 ft | 490 kts | 244° |
| 2026-05-05 18:59 | 54.09197 | -53.48942 | 37585 ft | 490 kts | 244° |
| 2026-05-05 19:00 | 54.06254 | -53.59406 | 37594 ft | 490 kts | 244° |
| 2026-05-05 19:00 | 54.03303 | -53.69853 | 37587 ft | 490 kts | 244° |
| 2026-05-05 19:01 | 54.00341 | -53.80289 | 37589 ft | 490 kts | 244° |
| 2026-05-05 19:01 | 53.97372 | -53.90702 | 37574 ft | 489 kts | 244° |
| 2026-05-05 19:02 | 53.94401 | -54.01072 | 37588 ft | 488 kts | 244° |
| 2026-05-05 19:02 | 53.91425 | -54.11418 | 37588 ft | 488 kts | 244° |
| 2026-05-05 19:03 | 53.88440 | -54.21749 | 37600 ft | 488 kts | 244° |
| 2026-05-05 19:03 | 53.85448 | -54.32062 | 37583 ft | 488 kts | 244° |
| 2026-05-05 19:04 | 53.82446 | -54.42359 | 37591 ft | 486 kts | 244° |
| 2026-05-05 19:04 | 53.79449 | -54.52597 | 37576 ft | 485 kts | 244° |
| 2026-05-05 19:05 | 53.76443 | -54.62822 | 37596 ft | 485 kts | 244° |
| 2026-05-05 19:05 | 53.73430 | -54.73023 | 37588 ft | 485 kts | 244° |
| 2026-05-05 19:06 | 53.70900 | -54.81558 | 37592 ft | 485 kts | 244° |
| 2026-05-05 19:06 | 53.67895 | -54.91654 | 37588 ft | 483 kts | 244° |
| 2026-05-05 19:07 | 53.64875 | -55.01756 | 37592 ft | 482 kts | 243° |
| 2026-05-05 19:07 | 53.61847 | -55.11844 | 37591 ft | 482 kts | 243° |
| 2026-05-05 19:08 | 53.58812 | -55.21913 | 37588 ft | 482 kts | 243° |
| 2026-05-05 19:08 | 53.55768 | -55.31969 | 37586 ft | 482 kts | 243° |
| 2026-05-05 19:09 | 53.52713 | -55.42020 | 37575 ft | 483 kts | 243° |
| 2026-05-05 19:09 | 53.49641 | -55.52082 | 37574 ft | 484 kts | 243° |
| 2026-05-05 19:10 | 53.46564 | -55.62121 | 37581 ft | 484 kts | 243° |
| 2026-05-05 19:10 | 53.43476 | -55.72152 | 37572 ft | 484 kts | 243° |
| 2026-05-05 19:11 | 53.40382 | -55.82160 | 37553 ft | 483 kts | 243° |
| 2026-05-05 19:11 | 53.37289 | -55.92125 | 37559 ft | 482 kts | 243° |
| 2026-05-05 19:12 | 53.34212 | -56.01998 | 37547 ft | 481 kts | 243° |
| 2026-05-05 19:12 | 53.31108 | -56.11915 | 37545 ft | 482 kts | 243° |
| 2026-05-05 19:13 | 53.27992 | -56.21830 | 37544 ft | 482 kts | 243° |
| 2026-05-05 19:13 | 53.24875 | -56.31709 | 37537 ft | 479 kts | 243° |
| 2026-05-05 19:14 | 53.21765 | -56.41525 | 37542 ft | 478 kts | 243° |
| 2026-05-05 19:14 | 53.18646 | -56.51330 | 37540 ft | 478 kts | 243° |
| 2026-05-05 19:15 | 53.15526 | -56.61100 | 37544 ft | 478 kts | 243° |
| 2026-05-05 19:15 | 53.12395 | -56.70865 | 37542 ft | 477 kts | 243° |
| 2026-05-05 19:16 | 53.09042 | -56.80359 | 37552 ft | 476 kts | 236° |
| 2026-05-05 19:16 | 53.05189 | -56.89301 | 37560 ft | 476 kts | 235° |
| 2026-05-05 19:17 | 53.01251 | -56.98159 | 37560 ft | 476 kts | 235° |
| 2026-05-05 19:17 | 52.97305 | -57.06989 | 37570 ft | 476 kts | 235° |
| 2026-05-05 19:18 | 52.93363 | -57.15807 | 37569 ft | 476 kts | 235° |
| 2026-05-05 19:18 | 52.89423 | -57.24609 | 37576 ft | 475 kts | 235° |
| 2026-05-05 19:19 | 52.85506 | -57.33333 | 37589 ft | 475 kts | 235° |
| 2026-05-05 19:19 | 52.81556 | -57.42098 | 37589 ft | 475 kts | 235° |
| 2026-05-05 19:20 | 52.77597 | -57.50848 | 37591 ft | 475 kts | 235° |
| 2026-05-05 19:20 | 52.73641 | -57.59565 | 37592 ft | 474 kts | 235° |
| 2026-05-05 19:21 | 52.69674 | -57.68274 | 37600 ft | 474 kts | 235° |
| 2026-05-05 19:21 | 52.65704 | -57.76962 | 37603 ft | 474 kts | 235° |
| 2026-05-05 19:22 | 52.61729 | -57.85631 | 37594 ft | 474 kts | 235° |
| 2026-05-05 19:22 | 52.57748 | -57.94284 | 37614 ft | 474 kts | 235° |
| 2026-05-05 19:23 | 52.53762 | -58.02917 | 37611 ft | 474 kts | 235° |
| 2026-05-05 19:23 | 52.49795 | -58.11481 | 37617 ft | 474 kts | 235° |
| 2026-05-05 19:24 | 52.45797 | -58.20082 | 37611 ft | 474 kts | 234° |
| 2026-05-05 19:24 | 52.41794 | -58.28663 | 37617 ft | 473 kts | 235° |
| 2026-05-05 19:25 | 52.37790 | -58.37219 | 37619 ft | 473 kts | 235° |
| 2026-05-05 19:25 | 52.33786 | -58.45749 | 37619 ft | 473 kts | 235° |
| 2026-05-05 19:26 | 52.29774 | -58.54266 | 37622 ft | 473 kts | 235° |
| 2026-05-05 19:26 | 52.25761 | -58.62756 | 37624 ft | 471 kts | 235° |
| 2026-05-05 19:27 | 52.21760 | -58.71190 | 37626 ft | 469 kts | 235° |
| 2026-05-05 19:27 | 52.17765 | -58.79587 | 37626 ft | 469 kts | 235° |
| 2026-05-05 19:28 | 52.13765 | -58.87968 | 37622 ft | 469 kts | 235° |
| 2026-05-05 19:28 | 52.09754 | -58.96343 | 37613 ft | 469 kts | 235° |
| 2026-05-05 19:29 | 52.05747 | -59.04681 | 37625 ft | 468 kts | 235° |
| 2026-05-05 19:29 | 52.01739 | -59.12996 | 37626 ft | 467 kts | 235° |
| 2026-05-05 19:30 | 51.97724 | -59.21298 | 37631 ft | 467 kts | 234° |
| 2026-05-05 19:30 | 51.93706 | -59.29579 | 37621 ft | 467 kts | 234° |
| 2026-05-05 19:31 | 51.89694 | -59.37821 | 37622 ft | 466 kts | 234° |
| 2026-05-05 19:31 | 51.85672 | -59.46056 | 37623 ft | 466 kts | 234° |
| 2026-05-05 19:32 | 51.81648 | -59.54269 | 37625 ft | 466 kts | 234° |
| 2026-05-05 19:32 | 51.77620 | -59.62465 | 37623 ft | 466 kts | 234° |
| 2026-05-05 19:33 | 51.73586 | -59.70647 | 37638 ft | 465 kts | 234° |
| 2026-05-05 19:33 | 51.69559 | -59.78787 | 37628 ft | 464 kts | 234° |
| 2026-05-05 19:34 | 51.65530 | -59.86908 | 37618 ft | 464 kts | 234° |
| 2026-05-05 19:35 | 51.59480 | -59.99052 | 37620 ft | 464 kts | 234° |
| 2026-05-05 19:35 | 51.55439 | -60.07132 | 37632 ft | 464 kts | 233° |
| 2026-05-05 19:36 | 51.51387 | -60.15207 | 37630 ft | 464 kts | 233° |
| 2026-05-05 19:36 | 51.47334 | -60.23261 | 37640 ft | 464 kts | 233° |
| 2026-05-05 19:37 | 51.43270 | -60.31309 | 37637 ft | 464 kts | 233° |
| 2026-05-05 19:37 | 51.39205 | -60.39335 | 37637 ft | 463 kts | 233° |
| 2026-05-05 19:38 | 51.35150 | -60.47317 | 37644 ft | 462 kts | 233° |
| 2026-05-05 19:38 | 51.31094 | -60.55276 | 37649 ft | 462 kts | 233° |
| 2026-05-05 19:39 | 51.27060 | -60.63167 | 37674 ft | 462 kts | 233° |
| 2026-05-05 19:39 | 51.22993 | -60.71100 | 37650 ft | 462 kts | 233° |
| 2026-05-05 19:40 | 51.18926 | -60.79006 | 37661 ft | 460 kts | 233° |
| 2026-05-05 19:40 | 51.14859 | -60.86888 | 37663 ft | 460 kts | 233° |
| 2026-05-05 19:41 | 51.10792 | -60.94747 | 37667 ft | 460 kts | 233° |
| 2026-05-05 19:41 | 51.06717 | -61.02596 | 37650 ft | 460 kts | 233° |
| 2026-05-05 19:42 | 51.02653 | -61.10399 | 37671 ft | 456 kts | 233° |
| 2026-05-05 19:42 | 50.98612 | -61.18135 | 37676 ft | 455 kts | 233° |
| 2026-05-05 19:43 | 50.94572 | -61.25850 | 37679 ft | 455 kts | 233° |
| 2026-05-05 19:43 | 50.90528 | -61.33548 | 37684 ft | 454 kts | 233° |
| 2026-05-05 19:44 | 50.86491 | -61.41208 | 37681 ft | 450 kts | 233° |
| 2026-05-05 19:44 | 50.82495 | -61.48764 | 37679 ft | 447 kts | 233° |
| 2026-05-05 19:45 | 50.78508 | -61.56289 | 37682 ft | 446 kts | 233° |
| 2026-05-05 19:45 | 50.74517 | -61.63797 | 37681 ft | 446 kts | 233° |
| 2026-05-05 19:46 | 50.70521 | -61.71294 | 37691 ft | 445 kts | 233° |
| 2026-05-05 19:46 | 50.66554 | -61.78709 | 37691 ft | 441 kts | 233° |
| 2026-05-05 19:47 | 50.62592 | -61.86097 | 37694 ft | 441 kts | 233° |
| 2026-05-05 19:47 | 50.58632 | -61.93462 | 37693 ft | 441 kts | 232° |
| 2026-05-05 19:48 | 50.54693 | -62.00766 | 37665 ft | 440 kts | 232° |
| 2026-05-05 19:48 | 50.50732 | -62.08090 | 37693 ft | 439 kts | 232° |
| 2026-05-05 19:49 | 50.46773 | -62.15391 | 37691 ft | 439 kts | 232° |
| 2026-05-05 19:49 | 50.42811 | -62.22676 | 37688 ft | 439 kts | 232° |
| 2026-05-05 19:50 | 50.38842 | -62.29951 | 37689 ft | 439 kts | 232° |
| 2026-05-05 19:50 | 50.34871 | -62.37210 | 37684 ft | 439 kts | 232° |
| 2026-05-05 19:51 | 50.30898 | -62.44454 | 37681 ft | 438 kts | 232° |
| 2026-05-05 19:51 | 50.26921 | -62.51684 | 37680 ft | 438 kts | 232° |
| 2026-05-05 19:52 | 50.22940 | -62.58902 | 37672 ft | 438 kts | 232° |
| 2026-05-05 19:52 | 50.18956 | -62.66103 | 37672 ft | 438 kts | 232° |
| 2026-05-05 19:53 | 50.14963 | -62.73301 | 37668 ft | 438 kts | 231° |
| 2026-05-05 19:53 | 50.10972 | -62.80476 | 37669 ft | 438 kts | 231° |
| 2026-05-05 19:54 | 50.07646 | -62.86439 | 37664 ft | 438 kts | 231° |
| 2026-05-05 19:54 | 50.02994 | -62.94758 | 37661 ft | 438 kts | 231° |
| 2026-05-05 19:55 | 49.99639 | -63.00740 | 37658 ft | 438 kts | 231° |
| 2026-05-05 19:55 | 49.95634 | -63.07861 | 37654 ft | 438 kts | 231° |
| 2026-05-05 19:56 | 49.91626 | -63.14970 | 37652 ft | 438 kts | 231° |
| 2026-05-05 19:56 | 49.87617 | -63.22063 | 37652 ft | 437 kts | 231° |
| 2026-05-05 19:57 | 49.83614 | -63.29128 | 37651 ft | 436 kts | 231° |
| 2026-05-05 19:57 | 49.79645 | -63.36110 | 37661 ft | 435 kts | 231° |
| 2026-05-05 19:58 | 49.75646 | -63.43126 | 37652 ft | 434 kts | 231° |
| 2026-05-05 19:58 | 49.71645 | -63.50128 | 37653 ft | 434 kts | 231° |
| 2026-05-05 19:59 | 49.67639 | -63.57118 | 37623 ft | 434 kts | 231° |
| 2026-05-05 19:59 | 49.63638 | -63.64081 | 37656 ft | 433 kts | 231° |
| 2026-05-05 20:00 | 49.59644 | -63.71016 | 37657 ft | 432 kts | 231° |
| 2026-05-05 20:00 | 49.55646 | -63.77938 | 37658 ft | 432 kts | 231° |
| 2026-05-05 20:01 | 49.51647 | -63.84844 | 37653 ft | 432 kts | 231° |
| 2026-05-05 20:01 | 49.47646 | -63.91733 | 37633 ft | 430 kts | 231° |
| 2026-05-05 20:02 | 49.43668 | -63.98562 | 37626 ft | 428 kts | 230° |
| 2026-05-05 20:02 | 49.39692 | -64.05374 | 37617 ft | 428 kts | 230° |
| 2026-05-05 20:03 | 49.35711 | -64.12176 | 37620 ft | 428 kts | 230° |
| 2026-05-05 20:03 | 49.31731 | -64.18959 | 37609 ft | 428 kts | 230° |
| 2026-05-05 20:04 | 49.27760 | -64.25707 | 37611 ft | 426 kts | 230° |
| 2026-05-05 20:04 | 49.23793 | -64.32431 | 37606 ft | 425 kts | 230° |
| 2026-05-05 20:05 | 49.19850 | -64.39099 | 37590 ft | 426 kts | 229° |
| 2026-05-05 20:05 | 49.15856 | -64.45833 | 37589 ft | 428 kts | 229° |
| 2026-05-05 20:06 | 49.11853 | -64.52566 | 37588 ft | 429 kts | 229° |
| 2026-05-05 20:06 | 49.07842 | -64.59295 | 37588 ft | 428 kts | 229° |
| 2026-05-05 20:07 | 49.03827 | -64.66015 | 37593 ft | 429 kts | 229° |
| 2026-05-05 20:07 | 48.99809 | -64.72722 | 37588 ft | 429 kts | 229° |
| 2026-05-05 20:08 | 48.95786 | -64.79419 | 37602 ft | 430 kts | 229° |
| 2026-05-05 20:08 | 48.91742 | -64.86138 | 37578 ft | 431 kts | 229° |
| 2026-05-05 20:09 | 48.87685 | -64.92855 | 37588 ft | 431 kts | 229° |
| 2026-05-05 20:09 | 48.83638 | -64.99539 | 37597 ft | 431 kts | 229° |
| 2026-05-05 20:10 | 48.79570 | -65.06239 | 37600 ft | 431 kts | 229° |
| 2026-05-05 20:10 | 48.75499 | -65.12931 | 37612 ft | 433 kts | 229° |
| 2026-05-05 20:11 | 48.71416 | -65.19624 | 37593 ft | 433 kts | 229° |
| 2026-05-05 20:11 | 48.67328 | -65.26307 | 37617 ft | 432 kts | 229° |
| 2026-05-05 20:12 | 48.63236 | -65.32981 | 37617 ft | 432 kts | 229° |
| 2026-05-05 20:12 | 48.59182 | -65.39574 | 37618 ft | 431 kts | 229° |
| 2026-05-05 20:13 | 48.55104 | -65.46191 | 37614 ft | 430 kts | 229° |
| 2026-05-05 20:13 | 48.51040 | -65.52766 | 37611 ft | 426 kts | 230° |
| 2026-05-05 20:14 | 48.47015 | -65.59265 | 37622 ft | 423 kts | 229° |
| 2026-05-05 20:14 | 48.43000 | -65.65731 | 37625 ft | 423 kts | 229° |
| 2026-05-05 20:15 | 48.38978 | -65.72193 | 37618 ft | 423 kts | 229° |
| 2026-05-05 20:15 | 48.34954 | -65.78645 | 37619 ft | 423 kts | 229° |
| 2026-05-05 20:16 | 48.30927 | -65.85081 | 37623 ft | 423 kts | 229° |
| 2026-05-05 20:16 | 48.26897 | -65.91504 | 37619 ft | 421 kts | 229° |
| 2026-05-05 20:17 | 48.22890 | -65.97875 | 37638 ft | 419 kts | 229° |
| 2026-05-05 20:17 | 48.18912 | -66.04189 | 37611 ft | 419 kts | 229° |
| 2026-05-05 20:18 | 48.14906 | -66.10530 | 37608 ft | 420 kts | 229° |
| 2026-05-05 20:18 | 48.10888 | -66.16875 | 37616 ft | 419 kts | 229° |
| 2026-05-05 20:19 | 48.06890 | -66.23172 | 37611 ft | 416 kts | 229° |
| 2026-05-05 20:19 | 48.02904 | -66.29436 | 37616 ft | 416 kts | 229° |
| 2026-05-05 20:20 | 47.98916 | -66.35689 | 37618 ft | 416 kts | 229° |
| 2026-05-05 20:20 | 47.94921 | -66.41937 | 37607 ft | 416 kts | 229° |
| 2026-05-05 20:21 | 47.90928 | -66.48165 | 37617 ft | 414 kts | 229° |
| 2026-05-05 20:21 | 47.86944 | -66.54366 | 37619 ft | 414 kts | 229° |
| 2026-05-05 20:22 | 47.82960 | -66.60558 | 37620 ft | 415 kts | 229° |
| 2026-05-05 20:22 | 47.78957 | -66.66757 | 37625 ft | 416 kts | 229° |
| 2026-05-05 20:23 | 47.74943 | -66.72958 | 37618 ft | 417 kts | 228° |
| 2026-05-05 20:23 | 47.70915 | -66.79169 | 37626 ft | 418 kts | 228° |
| 2026-05-05 20:24 | 47.66880 | -66.85373 | 37632 ft | 418 kts | 228° |
| 2026-05-05 20:24 | 47.62842 | -66.91570 | 37627 ft | 418 kts | 228° |
| 2026-05-05 20:25 | 47.58797 | -66.97761 | 37625 ft | 417 kts | 228° |
| 2026-05-05 20:25 | 47.54763 | -67.03920 | 37635 ft | 416 kts | 228° |
| 2026-05-05 20:26 | 47.50735 | -67.10058 | 37636 ft | 416 kts | 228° |
| 2026-05-05 20:26 | 47.46731 | -67.16144 | 37639 ft | 416 kts | 228° |
| 2026-05-05 20:27 | 47.42664 | -67.22312 | 37628 ft | 415 kts | 229° |
| 2026-05-05 20:27 | 47.38670 | -67.28353 | 37642 ft | 413 kts | 229° |
| 2026-05-05 20:28 | 47.34596 | -67.34327 | 37644 ft | 413 kts | 226° |
| 2026-05-05 20:28 | 47.30301 | -67.39980 | 37642 ft | 414 kts | 225° |
| 2026-05-05 20:29 | 47.25981 | -67.45595 | 37639 ft | 414 kts | 225° |
| 2026-05-05 20:29 | 47.21694 | -67.51245 | 37645 ft | 413 kts | 225° |
| 2026-05-05 20:30 | 47.17427 | -67.56908 | 37651 ft | 413 kts | 225° |
| 2026-05-05 20:30 | 47.13166 | -67.62561 | 37654 ft | 413 kts | 225° |
| 2026-05-05 20:31 | 47.08901 | -67.68204 | 37646 ft | 413 kts | 225° |
| 2026-05-05 20:31 | 47.04629 | -67.73839 | 37629 ft | 413 kts | 225° |
| 2026-05-05 20:32 | 47.00353 | -67.79465 | 37617 ft | 413 kts | 225° |
| 2026-05-05 20:32 | 46.96081 | -67.85074 | 37607 ft | 413 kts | 225° |
| 2026-05-05 20:33 | 46.91803 | -67.90679 | 37601 ft | 413 kts | 225° |
| 2026-05-05 20:33 | 46.87523 | -67.96276 | 37599 ft | 413 kts | 225° |
| 2026-05-05 20:34 | 46.83235 | -68.01868 | 37600 ft | 413 kts | 225° |
| 2026-05-05 20:34 | 46.78957 | -68.07467 | 37597 ft | 412 kts | 226° |
| 2026-05-05 20:35 | 46.75224 | -68.13757 | 37648 ft | 409 kts | 234° |
| 2026-05-05 20:35 | 46.71835 | -68.20364 | 37649 ft | 410 kts | 235° |
| 2026-05-05 20:36 | 46.68467 | -68.27054 | 37644 ft | 410 kts | 235° |
| 2026-05-05 20:36 | 46.65088 | -68.33733 | 37646 ft | 410 kts | 235° |
| 2026-05-05 20:37 | 46.61696 | -68.40394 | 37646 ft | 410 kts | 235° |
| 2026-05-05 20:37 | 46.58293 | -68.47047 | 37620 ft | 410 kts | 235° |
| 2026-05-05 20:38 | 46.54878 | -68.53709 | 37667 ft | 412 kts | 234° |
| 2026-05-05 20:38 | 46.51449 | -68.60384 | 37641 ft | 413 kts | 234° |
| 2026-05-05 20:39 | 46.48010 | -68.67062 | 37639 ft | 413 kts | 234° |
| 2026-05-05 20:39 | 46.44565 | -68.73734 | 37650 ft | 413 kts | 234° |
| 2026-05-05 20:40 | 46.41117 | -68.80396 | 37645 ft | 413 kts | 234° |
| 2026-05-05 20:40 | 46.37671 | -68.87042 | 37645 ft | 412 kts | 234° |
| 2026-05-05 20:41 | 46.34223 | -68.93674 | 37645 ft | 412 kts | 234° |
| 2026-05-05 20:41 | 46.30772 | -69.00297 | 37645 ft | 412 kts | 234° |
| 2026-05-05 20:42 | 46.27313 | -69.06919 | 37630 ft | 412 kts | 234° |
| 2026-05-05 20:42 | 46.23871 | -69.13491 | 37650 ft | 413 kts | 234° |
| 2026-05-05 20:43 | 46.20399 | -69.20109 | 37651 ft | 414 kts | 234° |
| 2026-05-05 20:43 | 46.16918 | -69.26724 | 37649 ft | 414 kts | 234° |
| 2026-05-05 20:44 | 46.13435 | -69.33329 | 37653 ft | 414 kts | 234° |
| 2026-05-05 20:44 | 46.10537 | -69.38814 | 37653 ft | 414 kts | 234° |
| 2026-05-05 20:45 | 46.05269 | -69.48756 | 37649 ft | 417 kts | 234° |
| 2026-05-05 20:45 | 46.01741 | -69.55392 | 37649 ft | 417 kts | 234° |
| 2026-05-05 20:46 | 45.98212 | -69.62017 | 37650 ft | 417 kts | 234° |
| 2026-05-05 20:46 | 45.94677 | -69.68638 | 37648 ft | 417 kts | 233° |
| 2026-05-05 20:47 | 45.91143 | -69.75240 | 37652 ft | 417 kts | 233° |
| 2026-05-05 20:47 | 45.87607 | -69.81830 | 37653 ft | 417 kts | 233° |
| 2026-05-05 20:48 | 45.84067 | -69.88410 | 37653 ft | 417 kts | 233° |
| 2026-05-05 20:48 | 45.80522 | -69.94985 | 37650 ft | 417 kts | 233° |
| 2026-05-05 20:49 | 45.76961 | -70.01577 | 37654 ft | 420 kts | 233° |
| 2026-05-05 20:49 | 45.73379 | -70.08192 | 37653 ft | 420 kts | 233° |
| 2026-05-05 20:50 | 45.69794 | -70.14798 | 37654 ft | 420 kts | 233° |
| 2026-05-05 20:50 | 45.66204 | -70.21395 | 37655 ft | 420 kts | 233° |
| 2026-05-05 20:51 | 45.62635 | -70.27939 | 37663 ft | 421 kts | 233° |
| 2026-05-05 20:51 | 45.59032 | -70.34530 | 37665 ft | 421 kts | 233° |
| 2026-05-05 20:52 | 45.55423 | -70.41115 | 37666 ft | 421 kts | 233° |
| 2026-05-05 20:52 | 45.51812 | -70.47690 | 37669 ft | 421 kts | 233° |
| 2026-05-05 20:53 | 45.48194 | -70.54263 | 37675 ft | 422 kts | 233° |
| 2026-05-05 20:53 | 45.44563 | -70.60843 | 37680 ft | 423 kts | 233° |
| 2026-05-05 20:54 | 45.40915 | -70.67435 | 37683 ft | 426 kts | 233° |
| 2026-05-05 20:54 | 45.37222 | -70.74099 | 37683 ft | 430 kts | 233° |
| 2026-05-05 20:55 | 45.33513 | -70.80777 | 37690 ft | 430 kts | 233° |
| 2026-05-05 20:55 | 45.29801 | -70.87440 | 37690 ft | 429 kts | 233° |
| 2026-05-05 20:56 | 45.26096 | -70.94077 | 37690 ft | 429 kts | 233° |
| 2026-05-05 20:56 | 45.22379 | -71.00720 | 37690 ft | 430 kts | 233° |
| 2026-05-05 20:57 | 45.18660 | -71.07351 | 37693 ft | 430 kts | 233° |
| 2026-05-05 20:57 | 45.14959 | -71.13932 | 37691 ft | 430 kts | 233° |
| 2026-05-05 20:58 | 45.11228 | -71.20554 | 37691 ft | 430 kts | 233° |
| 2026-05-05 20:58 | 45.07496 | -71.27161 | 37697 ft | 430 kts | 233° |
| 2026-05-05 20:59 | 45.03760 | -71.33758 | 37706 ft | 427 kts | 232° |
| 2026-05-05 20:59 | 45.00054 | -71.40287 | 37710 ft | 426 kts | 233° |
| 2026-05-05 21:00 | 44.96338 | -71.46823 | 37708 ft | 427 kts | 232° |
| 2026-05-05 21:00 | 44.92619 | -71.53348 | 37706 ft | 426 kts | 232° |
| 2026-05-05 21:01 | 44.88895 | -71.59864 | 37702 ft | 427 kts | 232° |
| 2026-05-05 21:01 | 44.85164 | -71.66378 | 37699 ft | 428 kts | 232° |
| 2026-05-05 21:02 | 44.81429 | -71.72897 | 37704 ft | 428 kts | 233° |
| 2026-05-05 21:02 | 44.78004 | -71.79737 | 37724 ft | 427 kts | 237° |
| 2026-05-05 21:03 | 44.74752 | -71.86735 | 37736 ft | 427 kts | 237° |
| 2026-05-05 21:03 | 44.71453 | -71.93689 | 37748 ft | 428 kts | 237° |
| 2026-05-05 21:04 | 44.68101 | -72.00604 | 37767 ft | 429 kts | 236° |
| 2026-05-05 21:04 | 44.64745 | -72.07455 | 37768 ft | 428 kts | 236° |
| 2026-05-05 21:05 | 44.61365 | -72.14338 | 37772 ft | 428 kts | 236° |
| 2026-05-05 21:05 | 44.57989 | -72.21212 | 37689 ft | 428 kts | 236° |
| 2026-05-05 21:06 | 44.54606 | -72.28088 | 37719 ft | 430 kts | 237° |
| 2026-05-05 21:06 | 44.51195 | -72.35004 | 37735 ft | 432 kts | 236° |
| 2026-05-05 21:07 | 44.47776 | -72.41915 | 37751 ft | 432 kts | 236° |
| 2026-05-05 21:07 | 44.44353 | -72.48816 | 37753 ft | 431 kts | 236° |
| 2026-05-05 21:08 | 44.40934 | -72.55692 | 37753 ft | 429 kts | 237° |
| 2026-05-05 21:08 | 44.37535 | -72.62521 | 37757 ft | 427 kts | 237° |
| 2026-05-05 21:09 | 44.34133 | -72.69333 | 37747 ft | 427 kts | 237° |
| 2026-05-05 21:09 | 44.30731 | -72.76129 | 37738 ft | 427 kts | 237° |
| 2026-05-05 21:10 | 44.27326 | -72.82916 | 37775 ft | 427 kts | 237° |
| 2026-05-05 21:10 | 44.23942 | -72.89646 | 37757 ft | 425 kts | 237° |
| 2026-05-05 21:11 | 44.20519 | -72.96433 | 37740 ft | 425 kts | 237° |
| 2026-05-05 21:11 | 44.17140 | -73.03119 | 37717 ft | 424 kts | 237° |
| 2026-05-05 21:12 | 44.13739 | -73.09836 | 37709 ft | 423 kts | 237° |
| 2026-05-05 21:12 | 44.10367 | -73.16479 | 37707 ft | 419 kts | 238° |
| 2026-05-05 21:13 | 44.07007 | -73.23085 | 37701 ft | 418 kts | 238° |
| 2026-05-05 21:13 | 44.03648 | -73.29675 | 37700 ft | 417 kts | 238° |
| 2026-05-05 21:14 | 44.00288 | -73.36251 | 37701 ft | 418 kts | 238° |
| 2026-05-05 21:14 | 43.96917 | -73.42832 | 37709 ft | 418 kts | 238° |
| 2026-05-05 21:15 | 43.93535 | -73.49423 | 37715 ft | 420 kts | 238° |
| 2026-05-05 21:15 | 43.90137 | -73.56030 | 37712 ft | 421 kts | 238° |
| 2026-05-05 21:16 | 43.86733 | -73.62632 | 37730 ft | 421 kts | 238° |
| 2026-05-05 21:16 | 43.83328 | -73.69216 | 37710 ft | 419 kts | 237° |
| 2026-05-05 21:17 | 43.79949 | -73.75741 | 37721 ft | 421 kts | 238° |
| 2026-05-05 21:17 | 43.76497 | -73.82396 | 37735 ft | 424 kts | 238° |
| 2026-05-05 21:18 | 43.73080 | -73.88966 | 37726 ft | 423 kts | 238° |
| 2026-05-05 21:18 | 43.69639 | -73.95562 | 37738 ft | 423 kts | 238° |
| 2026-05-05 21:19 | 43.66115 | -74.02094 | 37742 ft | 424 kts | 236° |
| 2026-05-05 21:19 | 43.62444 | -74.08408 | 37750 ft | 421 kts | 235° |
| 2026-05-05 21:20 | 43.58771 | -74.14702 | 37747 ft | 421 kts | 235° |
| 2026-05-05 21:20 | 43.55127 | -74.21011 | 37749 ft | 420 kts | 235° |
| 2026-05-05 21:21 | 43.51495 | -74.27323 | 37746 ft | 420 kts | 236° |
| 2026-05-05 21:21 | 43.47853 | -74.33650 | 37753 ft | 423 kts | 236° |
| 2026-05-05 21:22 | 43.44196 | -74.39980 | 37762 ft | 420 kts | 236° |
| 2026-05-05 21:22 | 43.40576 | -74.46223 | 37759 ft | 416 kts | 236° |
| 2026-05-05 21:23 | 43.36992 | -74.52400 | 37767 ft | 416 kts | 236° |
| 2026-05-05 21:23 | 43.33377 | -74.58621 | 37762 ft | 418 kts | 237° |
| 2026-05-05 21:24 | 43.29743 | -74.64858 | 37767 ft | 418 kts | 237° |
| 2026-05-05 21:24 | 43.26099 | -74.71093 | 37769 ft | 418 kts | 237° |
| 2026-05-05 21:25 | 43.22454 | -74.77317 | 37776 ft | 419 kts | 237° |
| 2026-05-05 21:25 | 43.18803 | -74.83543 | 37771 ft | 420 kts | 237° |
| 2026-05-05 21:26 | 43.15131 | -74.89796 | 37770 ft | 422 kts | 237° |
| 2026-05-05 21:26 | 43.11404 | -74.96033 | 37766 ft | 425 kts | 234° |
| 2026-05-05 21:27 | 43.06877 | -75.01372 | 37775 ft | 438 kts | 220° |
| 2026-05-05 21:27 | 43.01499 | -75.05485 | 37767 ft | 448 kts | 214° |
| 2026-05-05 21:28 | 42.95852 | -75.09256 | 37776 ft | 453 kts | 214° |
| 2026-05-05 21:28 | 42.90330 | -75.13229 | 37778 ft | 442 kts | 221° |
| 2026-05-05 21:29 | 42.85801 | -75.18634 | 37761 ft | 426 kts | 237° |
| 2026-05-05 21:29 | 42.82482 | -75.25268 | 37788 ft | 425 kts | 245° |
| 2026-05-05 21:30 | 42.79602 | -75.32321 | 37799 ft | 426 kts | 246° |
| 2026-05-05 21:30 | 42.76751 | -75.39385 | 37821 ft | 426 kts | 246° |
| 2026-05-05 21:31 | 42.73844 | -75.46404 | 37808 ft | 424 kts | 246° |
| 2026-05-05 21:31 | 42.70930 | -75.53320 | 37780 ft | 420 kts | 245° |
| 2026-05-05 21:32 | 42.68025 | -75.60199 | 37797 ft | 425 kts | 246° |
| 2026-05-05 21:32 | 42.65073 | -75.67184 | 37795 ft | 427 kts | 245° |
| 2026-05-05 21:33 | 42.62108 | -75.74170 | 37799 ft | 427 kts | 245° |
| 2026-05-05 21:33 | 42.59143 | -75.81140 | 37801 ft | 425 kts | 245° |
| 2026-05-05 21:34 | 42.56118 | -75.88003 | 37794 ft | 425 kts | 241° |
| 2026-05-05 21:34 | 42.53025 | -75.93316 | 37795 ft | 433 kts | 237° |
| 2026-05-05 21:35 | 42.48418 | -76.00597 | 37798 ft | 440 kts | 236° |
| 2026-05-05 21:35 | 42.44404 | -76.06821 | 37801 ft | 438 kts | 236° |
| 2026-05-05 21:36 | 42.41091 | -76.11969 | 37808 ft | 438 kts | 236° |
| 2026-05-05 21:36 | 42.37099 | -76.18182 | 37809 ft | 436 kts | 236° |
| 2026-05-05 21:37 | 42.33135 | -76.24342 | 37780 ft | 434 kts | 236° |
| 2026-05-05 21:37 | 42.29176 | -76.30494 | 37778 ft | 434 kts | 236° |
| 2026-05-05 21:38 | 42.25211 | -76.36639 | 37800 ft | 434 kts | 236° |
| 2026-05-05 21:38 | 42.21239 | -76.42780 | 37778 ft | 434 kts | 236° |
| 2026-05-05 21:39 | 42.17254 | -76.48934 | 37789 ft | 437 kts | 236° |
| 2026-05-05 21:39 | 42.13248 | -76.55099 | 37795 ft | 436 kts | 236° |
| 2026-05-05 21:40 | 42.09250 | -76.61233 | 37789 ft | 435 kts | 236° |
| 2026-05-05 21:40 | 42.05261 | -76.67348 | 37787 ft | 435 kts | 236° |
| 2026-05-05 21:41 | 42.01270 | -76.73457 | 37792 ft | 435 kts | 236° |
| 2026-05-05 21:41 | 41.97280 | -76.79553 | 37789 ft | 435 kts | 236° |
| 2026-05-05 21:42 | 41.93275 | -76.85653 | 37788 ft | 435 kts | 236° |
| 2026-05-05 21:42 | 41.89281 | -76.91719 | 37785 ft | 432 kts | 236° |
| 2026-05-05 21:43 | 41.85239 | -76.97671 | 37779 ft | 434 kts | 234° |
| 2026-05-05 21:43 | 41.80977 | -77.03456 | 37793 ft | 437 kts | 233° |
| 2026-05-05 21:44 | 41.76680 | -77.09235 | 37796 ft | 437 kts | 233° |
| 2026-05-05 21:44 | 41.72417 | -77.15031 | 37795 ft | 437 kts | 233° |
| 2026-05-05 21:45 | 41.68167 | -77.20837 | 37775 ft | 437 kts | 233° |
| 2026-05-05 21:45 | 41.63913 | -77.26651 | 37802 ft | 437 kts | 233° |
| 2026-05-05 21:46 | 41.59657 | -77.32445 | 37804 ft | 437 kts | 233° |
| 2026-05-05 21:46 | 41.55438 | -77.38185 | 37802 ft | 437 kts | 233° |
| 2026-05-05 21:47 | 41.51177 | -77.43963 | 37805 ft | 436 kts | 233° |
| 2026-05-05 21:47 | 41.46908 | -77.49740 | 37806 ft | 438 kts | 233° |
| 2026-05-05 21:48 | 41.42629 | -77.55519 | 37809 ft | 438 kts | 233° |
| 2026-05-05 21:48 | 41.38342 | -77.61296 | 37812 ft | 439 kts | 233° |
| 2026-05-05 21:49 | 41.34058 | -77.67044 | 37808 ft | 437 kts | 233° |
| 2026-05-05 21:49 | 41.29786 | -77.72790 | 37817 ft | 438 kts | 234° |
| 2026-05-05 21:50 | 41.25491 | -77.78552 | 37819 ft | 439 kts | 234° |
| 2026-05-05 21:50 | 41.21190 | -77.84312 | 37810 ft | 439 kts | 233° |
| 2026-05-05 21:51 | 41.16880 | -77.90065 | 37815 ft | 439 kts | 233° |
| 2026-05-05 21:51 | 41.12565 | -77.95809 | 37813 ft | 440 kts | 233° |
| 2026-05-05 21:52 | 41.06059 | -78.04455 | 37826 ft | 442 kts | 234° |
| 2026-05-05 21:53 | 41.01715 | -78.10210 | 37828 ft | 442 kts | 234° |
| 2026-05-05 21:53 | 40.97367 | -78.15960 | 37831 ft | 442 kts | 234° |
| 2026-05-05 21:54 | 40.93019 | -78.21703 | 37839 ft | 442 kts | 233° |
| 2026-05-05 21:54 | 40.88662 | -78.27446 | 37837 ft | 442 kts | 233° |
| 2026-05-05 21:55 | 40.84331 | -78.33142 | 37834 ft | 442 kts | 233° |
| 2026-05-05 21:55 | 40.79967 | -78.38870 | 37830 ft | 443 kts | 233° |
| 2026-05-05 21:56 | 40.75602 | -78.44589 | 37792 ft | 442 kts | 233° |
| 2026-05-05 21:56 | 40.71215 | -78.50320 | 37821 ft | 444 kts | 233° |
| 2026-05-05 21:57 | 40.66825 | -78.56050 | 37814 ft | 444 kts | 233° |
| 2026-05-05 21:57 | 40.62439 | -78.61765 | 37813 ft | 444 kts | 233° |
| 2026-05-05 21:58 | 40.58043 | -78.67477 | 37818 ft | 444 kts | 233° |
| 2026-05-05 21:58 | 40.53647 | -78.73179 | 37825 ft | 444 kts | 234° |
| 2026-05-05 21:59 | 40.49245 | -78.78884 | 37861 ft | 445 kts | 234° |
| 2026-05-05 21:59 | 40.44831 | -78.84591 | 37871 ft | 445 kts | 233° |
| 2026-05-05 22:00 | 40.40419 | -78.90278 | 37873 ft | 445 kts | 234° |
| 2026-05-05 22:00 | 40.36004 | -78.95962 | 37871 ft | 445 kts | 234° |
| 2026-05-05 22:01 | 40.31567 | -79.01659 | 37874 ft | 447 kts | 234° |
| 2026-05-05 22:01 | 40.27121 | -79.07359 | 37867 ft | 447 kts | 234° |
| 2026-05-05 22:02 | 40.22684 | -79.13038 | 37865 ft | 446 kts | 234° |
| 2026-05-05 22:02 | 40.18279 | -79.18665 | 37867 ft | 446 kts | 234° |
| 2026-05-05 22:03 | 40.13845 | -79.24321 | 37870 ft | 446 kts | 233° |
| 2026-05-05 22:03 | 40.09404 | -79.29971 | 37868 ft | 446 kts | 233° |
| 2026-05-05 22:04 | 40.04961 | -79.35615 | 37868 ft | 446 kts | 233° |
| 2026-05-05 22:04 | 40.00518 | -79.41248 | 37875 ft | 445 kts | 233° |
| 2026-05-05 22:05 | 39.96197 | -79.46995 | 37877 ft | 441 kts | 236° |
| 2026-05-05 22:05 | 39.92048 | -79.52870 | 37890 ft | 440 kts | 237° |
| 2026-05-05 22:06 | 39.87889 | -79.58733 | 37885 ft | 441 kts | 236° |
| 2026-05-05 22:06 | 39.83695 | -79.64558 | 37888 ft | 442 kts | 236° |
| 2026-05-05 22:07 | 39.79481 | -79.70366 | 37849 ft | 441 kts | 236° |
| 2026-05-05 22:07 | 39.75252 | -79.76184 | 37891 ft | 443 kts | 236° |
| 2026-05-05 22:08 | 39.71012 | -79.82011 | 37893 ft | 443 kts | 236° |
| 2026-05-05 22:08 | 39.66785 | -79.87804 | 37894 ft | 441 kts | 236° |
| 2026-05-05 22:09 | 39.62570 | -79.93574 | 37898 ft | 441 kts | 236° |
| 2026-05-05 22:09 | 39.58349 | -79.99345 | 37888 ft | 441 kts | 236° |
| 2026-05-05 22:10 | 39.54124 | -80.05111 | 37891 ft | 441 kts | 236° |
| 2026-05-05 22:10 | 39.49935 | -80.10900 | 37882 ft | 439 kts | 238° |
| 2026-05-05 22:11 | 39.45908 | -80.16834 | 37874 ft | 438 kts | 238° |
| 2026-05-05 22:11 | 39.41911 | -80.22765 | 37866 ft | 437 kts | 238° |
| 2026-05-05 22:12 | 39.37888 | -80.28666 | 37860 ft | 438 kts | 238° |
| 2026-05-05 22:12 | 39.33840 | -80.34563 | 37908 ft | 439 kts | 238° |
| 2026-05-05 22:13 | 39.29809 | -80.40414 | 37898 ft | 439 kts | 238° |
| 2026-05-05 22:13 | 39.25745 | -80.46299 | 37896 ft | 439 kts | 238° |
| 2026-05-05 22:14 | 39.21682 | -80.52172 | 37879 ft | 439 kts | 238° |
| 2026-05-05 22:14 | 39.17609 | -80.58048 | 37864 ft | 440 kts | 238° |
| 2026-05-05 22:15 | 39.13534 | -80.63922 | 37865 ft | 440 kts | 238° |
| 2026-05-05 22:15 | 39.09451 | -80.69802 | 37865 ft | 440 kts | 238° |
| 2026-05-05 22:16 | 39.05372 | -80.75656 | 37867 ft | 440 kts | 238° |
| 2026-05-05 22:16 | 39.01283 | -80.81515 | 37872 ft | 440 kts | 238° |
| 2026-05-05 22:17 | 38.97055 | -80.87252 | 37870 ft | 444 kts | 236° |
| 2026-05-05 22:17 | 38.92659 | -80.92853 | 37873 ft | 445 kts | 235° |
| 2026-05-05 22:18 | 38.88284 | -80.98439 | 37874 ft | 443 kts | 236° |
| 2026-05-05 22:18 | 38.83949 | -81.04043 | 37872 ft | 442 kts | 236° |
| 2026-05-05 22:19 | 38.79622 | -81.09650 | 37874 ft | 442 kts | 236° |
| 2026-05-05 22:19 | 38.75303 | -81.15239 | 37877 ft | 442 kts | 236° |
| 2026-05-05 22:20 | 38.71009 | -81.20778 | 37877 ft | 441 kts | 236° |
| 2026-05-05 22:20 | 38.66686 | -81.26346 | 37875 ft | 441 kts | 236° |
| 2026-05-05 22:21 | 38.62361 | -81.31906 | 37876 ft | 440 kts | 236° |
| 2026-05-05 22:21 | 38.58055 | -81.37431 | 37878 ft | 439 kts | 236° |
| 2026-05-05 22:22 | 38.53739 | -81.42959 | 37892 ft | 439 kts | 236° |
| 2026-05-05 22:22 | 38.49426 | -81.48476 | 37896 ft | 439 kts | 237° |
| 2026-05-05 22:23 | 38.45111 | -81.53989 | 37878 ft | 439 kts | 236° |
| 2026-05-05 22:23 | 38.40792 | -81.59491 | 37892 ft | 439 kts | 236° |
| 2026-05-05 22:24 | 38.37195 | -81.64061 | 37893 ft | 439 kts | 236° |
| 2026-05-05 22:24 | 38.32135 | -81.70488 | 37900 ft | 441 kts | 237° |
| 2026-05-05 22:25 | 38.28521 | -81.75073 | 37895 ft | 442 kts | 236° |
| 2026-05-05 22:25 | 38.24163 | -81.80590 | 37889 ft | 442 kts | 236° |
| 2026-05-05 22:26 | 38.19803 | -81.86094 | 37886 ft | 441 kts | 237° |
| 2026-05-05 22:26 | 38.15441 | -81.91597 | 37884 ft | 442 kts | 236° |
| 2026-05-05 22:27 | 38.11076 | -81.97087 | 37883 ft | 442 kts | 236° |
| 2026-05-05 22:27 | 38.06705 | -82.02570 | 37885 ft | 442 kts | 236° |
| 2026-05-05 22:28 | 38.02339 | -82.08057 | 37885 ft | 441 kts | 236° |
| 2026-05-05 22:28 | 37.97980 | -82.13516 | 37884 ft | 441 kts | 236° |
| 2026-05-05 22:29 | 37.93612 | -82.18975 | 37887 ft | 442 kts | 236° |
| 2026-05-05 22:29 | 37.89253 | -82.24405 | 37886 ft | 444 kts | 236° |
| 2026-05-05 22:30 | 37.84854 | -82.29884 | 37891 ft | 444 kts | 236° |
| 2026-05-05 22:30 | 37.80452 | -82.35362 | 37891 ft | 444 kts | 236° |
| 2026-05-05 22:31 | 37.76044 | -82.40835 | 37830 ft | 444 kts | 236° |
| 2026-05-05 22:31 | 37.71649 | -82.46280 | 37892 ft | 443 kts | 236° |
| 2026-05-05 22:32 | 37.67238 | -82.51732 | 37947 ft | 444 kts | 236° |
| 2026-05-05 22:32 | 37.62821 | -82.57179 | 37946 ft | 445 kts | 236° |
| 2026-05-05 22:33 | 37.58444 | -82.62578 | 37945 ft | 446 kts | 236° |
| 2026-05-05 22:33 | 37.54276 | -82.67694 | 37948 ft | 444 kts | 236° |
| 2026-05-05 22:34 | 37.50078 | -82.72849 | 37923 ft | 444 kts | 236° |
| 2026-05-05 22:34 | 37.45674 | -82.78260 | 37913 ft | 447 kts | 236° |
| 2026-05-05 22:35 | 37.41217 | -82.83722 | 37908 ft | 447 kts | 236° |
| 2026-05-05 22:35 | 37.36764 | -82.89163 | 37904 ft | 446 kts | 236° |
| 2026-05-05 22:36 | 37.32308 | -82.94594 | 37928 ft | 446 kts | 236° |
| 2026-05-05 22:36 | 37.27851 | -83.00018 | 37911 ft | 446 kts | 236° |
| 2026-05-05 22:37 | 37.23389 | -83.05381 | 37912 ft | 451 kts | 233° |
| 2026-05-05 22:37 | 37.18567 | -83.10486 | 37917 ft | 455 kts | 231° |
| 2026-05-05 22:38 | 37.13656 | -83.15500 | 37915 ft | 455 kts | 231° |
| 2026-05-05 22:38 | 37.08789 | -83.20557 | 37915 ft | 454 kts | 231° |
| 2026-05-05 22:39 | 37.03959 | -83.25633 | 37873 ft | 453 kts | 231° |
| 2026-05-05 22:39 | 36.99140 | -83.30712 | 37921 ft | 453 kts | 231° |
| 2026-05-05 22:40 | 36.94312 | -83.35790 | 37924 ft | 454 kts | 231° |
| 2026-05-05 22:40 | 36.89474 | -83.40862 | 37920 ft | 454 kts | 231° |
| 2026-05-05 22:41 | 36.84627 | -83.45934 | 37914 ft | 454 kts | 231° |
| 2026-05-05 22:41 | 36.79778 | -83.50997 | 37922 ft | 455 kts | 231° |
| 2026-05-05 22:42 | 36.74922 | -83.56068 | 37919 ft | 455 kts | 231° |
| 2026-05-05 22:42 | 36.70063 | -83.61124 | 37918 ft | 455 kts | 231° |
| 2026-05-05 22:43 | 36.65238 | -83.66135 | 37921 ft | 455 kts | 231° |
| 2026-05-05 22:43 | 36.60373 | -83.71183 | 37920 ft | 455 kts | 231° |
| 2026-05-05 22:44 | 36.55509 | -83.76221 | 37923 ft | 456 kts | 231° |
| 2026-05-05 22:44 | 36.50561 | -83.81213 | 37914 ft | 462 kts | 227° |
| 2026-05-05 22:45 | 36.45245 | -83.85792 | 37916 ft | 467 kts | 225° |
| 2026-05-05 22:45 | 36.39854 | -83.90289 | 37913 ft | 467 kts | 225° |
| 2026-05-05 22:46 | 36.34511 | -83.94842 | 37869 ft | 464 kts | 226° |
| 2026-05-05 22:46 | 36.29212 | -83.99427 | 37910 ft | 465 kts | 226° |
| 2026-05-05 22:47 | 36.23908 | -84.04025 | 37904 ft | 465 kts | 226° |
| 2026-05-05 22:47 | 36.18604 | -84.08610 | 37908 ft | 466 kts | 226° |
| 2026-05-05 22:48 | 36.13283 | -84.13197 | 37912 ft | 466 kts | 226° |
| 2026-05-05 22:48 | 36.07963 | -84.17775 | 37910 ft | 467 kts | 226° |
| 2026-05-05 22:49 | 36.02630 | -84.22359 | 37924 ft | 467 kts | 226° |
| 2026-05-05 22:49 | 35.97290 | -84.26938 | 37923 ft | 467 kts | 226° |
| 2026-05-05 22:50 | 35.91948 | -84.31508 | 37921 ft | 467 kts | 226° |
| 2026-05-05 22:50 | 35.86605 | -84.36075 | 37919 ft | 467 kts | 226° |
| 2026-05-05 22:51 | 35.81269 | -84.40631 | 37926 ft | 467 kts | 226° |
| 2026-05-05 22:51 | 35.75925 | -84.45185 | 37932 ft | 467 kts | 226° |
| 2026-05-05 22:52 | 35.70573 | -84.49738 | 37934 ft | 467 kts | 226° |
| 2026-05-05 22:52 | 35.66129 | -84.53511 | 37936 ft | 467 kts | 226° |
| 2026-05-05 22:53 | 35.62049 | -84.56971 | 37923 ft | 467 kts | 226° |
| 2026-05-05 22:53 | 35.56694 | -84.61507 | 37956 ft | 468 kts | 226° |
| 2026-05-05 22:54 | 35.51339 | -84.66035 | 37958 ft | 468 kts | 226° |
| 2026-05-05 22:54 | 35.45979 | -84.70552 | 37962 ft | 466 kts | 226° |
| 2026-05-05 22:55 | 35.40648 | -84.75044 | 37958 ft | 465 kts | 226° |
| 2026-05-05 22:55 | 35.35323 | -84.79529 | 37921 ft | 465 kts | 226° |
| 2026-05-05 22:56 | 35.29998 | -84.84005 | 37925 ft | 464 kts | 226° |
| 2026-05-05 22:56 | 35.24668 | -84.88475 | 37927 ft | 464 kts | 226° |
| 2026-05-05 22:57 | 35.19339 | -84.92937 | 37929 ft | 464 kts | 226° |
| 2026-05-05 22:57 | 35.14011 | -84.97390 | 37903 ft | 464 kts | 226° |
| 2026-05-05 22:58 | 35.09299 | -85.01323 | 37941 ft | 464 kts | 226° |
| 2026-05-05 22:58 | 35.03929 | -85.05799 | 37944 ft | 463 kts | 226° |
| 2026-05-05 22:59 | 34.98615 | -85.10216 | 37963 ft | 461 kts | 226° |
| 2026-05-05 22:59 | 34.93571 | -85.14406 | 37962 ft | 461 kts | 226° |
| 2026-05-05 23:00 | 34.85630 | -85.20994 | 37949 ft | 460 kts | 226° |
| 2026-05-05 23:00 | 34.80361 | -85.25414 | 37951 ft | 455 kts | 229° |
| 2026-05-05 23:01 | 34.77995 | -85.27890 | 37953 ft | 443 kts | 236° |
| 2026-05-05 23:01 | 34.75933 | -85.30618 | 37952 ft | 436 kts | 240° |
| 2026-05-05 23:01 | 34.72071 | -85.36256 | 37953 ft | 433 kts | 242° |
| 2026-05-05 23:02 | 34.68294 | -85.41958 | 37950 ft | 433 kts | 242° |
| 2026-05-05 23:02 | 34.64520 | -85.47630 | 37926 ft | 430 kts | 242° |
| 2026-05-05 23:03 | 34.60752 | -85.53246 | 37950 ft | 428 kts | 242° |
| 2026-05-05 23:03 | 34.56985 | -85.58844 | 37949 ft | 428 kts | 242° |
| 2026-05-05 23:04 | 34.53240 | -85.64403 | 37948 ft | 428 kts | 242° |
| 2026-05-05 23:04 | 34.49469 | -85.69988 | 37949 ft | 428 kts | 242° |
| 2026-05-05 23:05 | 34.45694 | -85.75569 | 37952 ft | 428 kts | 242° |
| 2026-05-05 23:05 | 34.41915 | -85.81146 | 37953 ft | 428 kts | 242° |
| 2026-05-05 23:06 | 34.38130 | -85.86722 | 37949 ft | 429 kts | 242° |
| 2026-05-05 23:06 | 34.34348 | -85.92286 | 37959 ft | 428 kts | 242° |
| 2026-05-05 23:07 | 34.30562 | -85.97850 | 37955 ft | 428 kts | 242° |
| 2026-05-05 23:07 | 34.26778 | -86.03403 | 37954 ft | 428 kts | 242° |
| 2026-05-05 23:08 | 34.22987 | -86.08956 | 37962 ft | 428 kts | 242° |
| 2026-05-05 23:08 | 34.19194 | -86.14502 | 37960 ft | 428 kts | 242° |
| 2026-05-05 23:09 | 34.15401 | -86.20038 | 37927 ft | 427 kts | 242° |
| 2026-05-05 23:09 | 34.11625 | -86.25536 | 37996 ft | 424 kts | 242° |
| 2026-05-05 23:10 | 34.07866 | -86.31009 | 37976 ft | 424 kts | 242° |
| 2026-05-05 23:10 | 34.04106 | -86.36483 | 37990 ft | 424 kts | 242° |
| 2026-05-05 23:11 | 34.02223 | -86.39218 | 37969 ft | 424 kts | 242° |
| 2026-05-05 23:11 | 34.01838 | -86.39776 | 37984 ft | 424 kts | 242° |
| 2026-05-05 23:12 | 33.99052 | -86.43819 | 37982 ft | 427 kts | 242° |
| 2026-05-05 23:13 | 33.96235 | -86.47896 | 37980 ft | 425 kts | 242° |
| 2026-05-05 23:13 | 33.93137 | -86.52380 | 37983 ft | 424 kts | 242° |
| 2026-05-05 23:14 | 33.89393 | -86.57802 | 37953 ft | 423 kts | 242° |
| 2026-05-05 23:14 | 33.85617 | -86.63238 | 37972 ft | 423 kts | 242° |
| 2026-05-05 23:15 | 33.81837 | -86.68674 | 37971 ft | 423 kts | 242° |
| 2026-05-05 23:15 | 33.78700 | -86.73184 | 37972 ft | 423 kts | 242° |
| 2026-05-05 23:16 | 33.74900 | -86.78642 | 37988 ft | 423 kts | 242° |
| 2026-05-05 23:16 | 33.71153 | -86.84025 | 37987 ft | 422 kts | 242° |
| 2026-05-05 23:17 | 33.68055 | -86.89804 | 37988 ft | 403 kts | 254° |
| 2026-05-05 23:17 | 33.66366 | -86.96049 | 37962 ft | 387 kts | 266° |
| 2026-05-05 23:18 | 33.65582 | -87.02415 | 37961 ft | 385 kts | 268° |
| 2026-05-05 23:18 | 33.64927 | -87.08785 | 37940 ft | 385 kts | 269° |
| 2026-05-05 23:19 | 33.64259 | -87.15169 | 37913 ft | 385 kts | 268° |
| 2026-05-05 23:19 | 33.63565 | -87.21547 | 37908 ft | 386 kts | 268° |
| 2026-05-05 23:20 | 33.62859 | -87.27930 | 37905 ft | 386 kts | 268° |
| 2026-05-05 23:20 | 33.62148 | -87.34307 | 37892 ft | 386 kts | 268° |
| 2026-05-05 23:21 | 33.61436 | -87.40691 | 37907 ft | 386 kts | 268° |
| 2026-05-05 23:22 | 33.59989 | -87.53573 | 37902 ft | 386 kts | 268° |
| 2026-05-05 23:22 | 33.59267 | -87.59953 | 37908 ft | 386 kts | 268° |
| 2026-05-05 23:23 | 33.58540 | -87.66341 | 37899 ft | 387 kts | 268° |
| 2026-05-05 23:23 | 33.57816 | -87.72686 | 37901 ft | 386 kts | 267° |
| 2026-05-05 23:24 | 33.57079 | -87.79108 | 37903 ft | 386 kts | 267° |
| 2026-05-05 23:24 | 33.56342 | -87.85495 | 37890 ft | 387 kts | 267° |
| 2026-05-05 23:25 | 33.55606 | -87.91834 | 37901 ft | 387 kts | 267° |
| 2026-05-05 23:25 | 33.54863 | -87.98217 | 37894 ft | 387 kts | 267° |
| 2026-05-05 23:26 | 33.54117 | -88.04597 | 37891 ft | 387 kts | 267° |
| 2026-05-05 23:26 | 33.53367 | -88.10976 | 37896 ft | 386 kts | 266° |
| 2026-05-05 23:27 | 33.52616 | -88.17345 | 37891 ft | 385 kts | 266° |
| 2026-05-05 23:27 | 33.51863 | -88.23696 | 37885 ft | 385 kts | 266° |
| 2026-05-05 23:28 | 33.51106 | -88.30050 | 37890 ft | 385 kts | 266° |
| 2026-05-05 23:28 | 33.50346 | -88.36405 | 37889 ft | 385 kts | 266° |
| 2026-05-05 23:29 | 33.49588 | -88.42708 | 37918 ft | 385 kts | 266° |
| 2026-05-05 23:29 | 33.48826 | -88.49057 | 37934 ft | 385 kts | 266° |
| 2026-05-05 23:30 | 33.48523 | -88.55416 | 37936 ft | 381 kts | 272° |
| 2026-05-05 23:30 | 33.48463 | -88.61759 | 37926 ft | 381 kts | 272° |
| 2026-05-05 23:31 | 33.48435 | -88.68120 | 37935 ft | 381 kts | 272° |
| 2026-05-05 23:31 | 33.48401 | -88.74470 | 37903 ft | 381 kts | 272° |
| 2026-05-05 23:32 | 33.48357 | -88.80822 | 37898 ft | 381 kts | 272° |
| 2026-05-05 23:32 | 33.48307 | -88.87179 | 37890 ft | 381 kts | 272° |
| 2026-05-05 23:33 | 33.48254 | -88.93526 | 37900 ft | 381 kts | 272° |
| 2026-05-05 23:33 | 33.48197 | -88.99880 | 37906 ft | 381 kts | 272° |
| 2026-05-05 23:34 | 33.48138 | -89.06229 | 37896 ft | 381 kts | 272° |
| 2026-05-05 23:34 | 33.48075 | -89.12571 | 37906 ft | 381 kts | 272° |
| 2026-05-05 23:35 | 33.48026 | -89.17389 | 37902 ft | 381 kts | 272° |
| 2026-05-05 23:35 | 33.47963 | -89.23279 | 37904 ft | 381 kts | 272° |
| 2026-05-05 23:36 | 33.47892 | -89.29636 | 37894 ft | 382 kts | 272° |
| 2026-05-05 23:36 | 33.47817 | -89.35988 | 37894 ft | 382 kts | 272° |
| 2026-05-05 23:37 | 33.47739 | -89.42351 | 37890 ft | 382 kts | 272° |
| 2026-05-05 23:37 | 33.47658 | -89.48704 | 37892 ft | 382 kts | 272° |
| 2026-05-05 23:38 | 33.47574 | -89.55067 | 37884 ft | 382 kts | 272° |
| 2026-05-05 23:38 | 33.47486 | -89.61422 | 37884 ft | 382 kts | 272° |
| 2026-05-05 23:39 | 33.47395 | -89.67779 | 37885 ft | 382 kts | 272° |
| 2026-05-05 23:39 | 33.47302 | -89.74098 | 37878 ft | 382 kts | 272° |
| 2026-05-05 23:40 | 33.47205 | -89.80458 | 37879 ft | 382 kts | 271° |
| 2026-05-05 23:40 | 33.47104 | -89.86819 | 37878 ft | 382 kts | 271° |
| 2026-05-05 23:41 | 33.47001 | -89.93181 | 37878 ft | 382 kts | 271° |
| 2026-05-05 23:41 | 33.46893 | -89.99543 | 37878 ft | 382 kts | 271° |
| 2026-05-05 23:42 | 33.46783 | -90.05899 | 37877 ft | 381 kts | 271° |
| 2026-05-05 23:42 | 33.46670 | -90.12246 | 37880 ft | 381 kts | 271° |
| 2026-05-05 23:43 | 33.46553 | -90.18600 | 37877 ft | 381 kts | 271° |
| 2026-05-05 23:43 | 33.46312 | -90.24952 | 37878 ft | 384 kts | 266° |
| 2026-05-05 23:44 | 33.45041 | -90.31199 | 37872 ft | 392 kts | 255° |
| 2026-05-05 23:44 | 33.42873 | -90.37225 | 37867 ft | 395 kts | 253° |
| 2026-05-05 23:45 | 33.40641 | -90.43226 | 37869 ft | 393 kts | 253° |
| 2026-05-05 23:45 | 33.38420 | -90.49199 | 37866 ft | 392 kts | 253° |
| 2026-05-05 23:46 | 33.36200 | -90.55165 | 37864 ft | 392 kts | 253° |
| 2026-05-05 23:46 | 33.33996 | -90.61082 | 37859 ft | 392 kts | 253° |
| 2026-05-05 23:47 | 33.31771 | -90.67042 | 37862 ft | 392 kts | 253° |
| 2026-05-05 23:47 | 33.29543 | -90.72999 | 37866 ft | 392 kts | 253° |
| 2026-05-05 23:48 | 33.27313 | -90.78952 | 37865 ft | 393 kts | 252° |
| 2026-05-05 23:48 | 33.25077 | -90.84909 | 37868 ft | 393 kts | 252° |
| 2026-05-05 23:49 | 33.22839 | -90.90862 | 37861 ft | 393 kts | 252° |
| 2026-05-05 23:49 | 33.20600 | -90.96807 | 37855 ft | 393 kts | 252° |
| 2026-05-05 23:50 | 33.18356 | -91.02754 | 37862 ft | 393 kts | 252° |
| 2026-05-05 23:50 | 33.16109 | -91.08698 | 37851 ft | 393 kts | 252° |
| 2026-05-05 23:51 | 33.13858 | -91.14646 | 37855 ft | 395 kts | 252° |
| 2026-05-05 23:51 | 33.11585 | -91.20640 | 37864 ft | 397 kts | 252° |
| 2026-05-05 23:52 | 33.09304 | -91.26641 | 37853 ft | 397 kts | 252° |
| 2026-05-05 23:52 | 33.07020 | -91.32639 | 37853 ft | 397 kts | 252° |
| 2026-05-05 23:53 | 33.04733 | -91.38637 | 37848 ft | 397 kts | 252° |
| 2026-05-05 23:53 | 33.02444 | -91.44628 | 37851 ft | 397 kts | 252° |
| 2026-05-05 23:54 | 33.00153 | -91.50615 | 37851 ft | 397 kts | 252° |
| 2026-05-05 23:54 | 32.97856 | -91.56607 | 37842 ft | 398 kts | 251° |
| 2026-05-05 23:55 | 32.95572 | -91.62554 | 37842 ft | 398 kts | 251° |
| 2026-05-05 23:55 | 32.93268 | -91.68541 | 37834 ft | 398 kts | 251° |
| 2026-05-05 23:56 | 32.90963 | -91.74522 | 37840 ft | 398 kts | 251° |
| 2026-05-05 23:56 | 32.88655 | -91.80499 | 37841 ft | 398 kts | 251° |
| 2026-05-05 23:57 | 32.86343 | -91.86479 | 37834 ft | 399 kts | 251° |
| 2026-05-05 23:57 | 32.84019 | -91.92480 | 37852 ft | 400 kts | 251° |
| 2026-05-05 23:58 | 32.81691 | -91.98476 | 37849 ft | 399 kts | 251° |
| 2026-05-05 23:58 | 32.79364 | -92.04461 | 37846 ft | 399 kts | 251° |
| 2026-05-05 23:59 | 32.77032 | -92.10447 | 37845 ft | 399 kts | 251° |
| 2026-05-05 23:59 | 32.74700 | -92.16425 | 37837 ft | 399 kts | 251° |
| 2026-05-06 00:00 | 32.72364 | -92.22404 | 37837 ft | 399 kts | 251° |
| 2026-05-06 00:00 | 32.70025 | -92.28378 | 37838 ft | 399 kts | 251° |
| 2026-05-06 00:01 | 32.68080 | -92.33336 | 37826 ft | 398 kts | 250° |
| 2026-05-06 00:01 | 32.65740 | -92.39294 | 37826 ft | 398 kts | 250° |
| 2026-05-06 00:02 | 32.63398 | -92.45247 | 37822 ft | 398 kts | 250° |
| 2026-05-06 00:02 | 32.61055 | -92.51192 | 37824 ft | 398 kts | 250° |
| 2026-05-06 00:03 | 32.58708 | -92.57136 | 37801 ft | 398 kts | 250° |
| 2026-05-06 00:03 | 32.56347 | -92.63111 | 37820 ft | 401 kts | 250° |
| 2026-05-06 00:04 | 32.53977 | -92.69092 | 37823 ft | 401 kts | 250° |
| 2026-05-06 00:04 | 32.51602 | -92.75074 | 37821 ft | 401 kts | 250° |
| 2026-05-06 00:05 | 32.48040 | -92.84031 | 37828 ft | 401 kts | 250° |
| 2026-05-06 00:06 | 32.45819 | -92.90023 | 37817 ft | 397 kts | 255° |
| 2026-05-06 00:06 | 32.44738 | -92.96370 | 37806 ft | 393 kts | 266° |
| 2026-05-06 00:07 | 32.44253 | -93.02806 | 37808 ft | 393 kts | 266° |
| 2026-05-06 00:07 | 32.43767 | -93.09246 | 37811 ft | 392 kts | 265° |
| 2026-05-06 00:08 | 32.43271 | -93.15677 | 37810 ft | 392 kts | 265° |
| 2026-05-06 00:08 | 32.42771 | -93.22100 | 37811 ft | 392 kts | 265° |
| 2026-05-06 00:09 | 32.42266 | -93.28526 | 37806 ft | 392 kts | 265° |
| 2026-05-06 00:09 | 32.41759 | -93.34947 | 37804 ft | 392 kts | 265° |
| 2026-05-06 00:10 | 32.41248 | -93.41360 | 37785 ft | 392 kts | 265° |
| 2026-05-06 00:10 | 32.40734 | -93.47784 | 37786 ft | 392 kts | 265° |
| 2026-05-06 00:11 | 32.40217 | -93.54198 | 37784 ft | 392 kts | 265° |
| 2026-05-06 00:11 | 32.39697 | -93.60614 | 37784 ft | 392 kts | 265° |
| 2026-05-06 00:12 | 32.39172 | -93.67037 | 37785 ft | 392 kts | 265° |
| 2026-05-06 00:12 | 32.38648 | -93.73412 | 37786 ft | 392 kts | 265° |
| 2026-05-06 00:13 | 32.38118 | -93.79828 | 37794 ft | 392 kts | 265° |
| 2026-05-06 00:13 | 32.37585 | -93.86240 | 37793 ft | 391 kts | 265° |
| 2026-05-06 00:14 | 32.37050 | -93.92638 | 37793 ft | 391 kts | 265° |
| 2026-05-06 00:14 | 32.36512 | -93.99026 | 37795 ft | 391 kts | 265° |
| 2026-05-06 00:15 | 32.35970 | -94.05418 | 37788 ft | 391 kts | 265° |
| 2026-05-06 00:15 | 32.35425 | -94.11813 | 37782 ft | 391 kts | 265° |
| 2026-05-06 00:16 | 32.34877 | -94.18204 | 37776 ft | 391 kts | 265° |
| 2026-05-06 00:16 | 32.34326 | -94.24591 | 37781 ft | 390 kts | 264° |
| 2026-05-06 00:17 | 32.33773 | -94.30960 | 37773 ft | 390 kts | 264° |
| 2026-05-06 00:17 | 32.33217 | -94.37336 | 37772 ft | 389 kts | 264° |
| 2026-05-06 00:18 | 32.32662 | -94.43655 | 37770 ft | 389 kts | 264° |
| 2026-05-06 00:18 | 32.32100 | -94.50024 | 37777 ft | 389 kts | 264° |
| 2026-05-06 00:19 | 32.31535 | -94.56387 | 37772 ft | 389 kts | 264° |
| 2026-05-06 00:19 | 32.30966 | -94.62745 | 37772 ft | 388 kts | 264° |
| 2026-05-06 00:20 | 32.30397 | -94.69088 | 37780 ft | 388 kts | 264° |
| 2026-05-06 00:20 | 32.29824 | -94.75423 | 37784 ft | 388 kts | 264° |
| 2026-05-06 00:21 | 32.29248 | -94.81763 | 37787 ft | 388 kts | 264° |
| 2026-05-06 00:21 | 32.28670 | -94.88091 | 37789 ft | 388 kts | 264° |
| 2026-05-06 00:22 | 32.28087 | -94.94432 | 37788 ft | 388 kts | 264° |
| 2026-05-06 00:22 | 32.27503 | -95.00757 | 37785 ft | 387 kts | 264° |
| 2026-05-06 00:23 | 32.26847 | -95.07073 | 37784 ft | 387 kts | 263° |
| 2026-05-06 00:23 | 32.26163 | -95.13363 | 37778 ft | 387 kts | 263° |
| 2026-05-06 00:24 | 32.25483 | -95.19671 | 37777 ft | 387 kts | 263° |
| 2026-05-06 00:24 | 32.25257 | -95.26010 | 37588 ft | 385 kts | 270° |
| 2026-05-06 00:24 | 32.25341 | -95.29144 | 37062 ft | 380 kts | 270° |
| 2026-05-06 00:25 | 32.25429 | -95.32269 | 36351 ft | 380 kts | 270° |
| 2026-05-06 00:25 | 32.25516 | -95.35390 | 35705 ft | 379 kts | 270° |
| 2026-05-06 00:25 | 32.25599 | -95.38494 | 35068 ft | 378 kts | 270° |
| 2026-05-06 00:25 | 32.25679 | -95.41558 | 34421 ft | 378 kts | 270° |
| 2026-05-06 00:26 | 32.25760 | -95.44701 | 33703 ft | 378 kts | 270° |
| 2026-05-06 00:26 | 32.25838 | -95.47772 | 32925 ft | 379 kts | 270° |
| 2026-05-06 00:26 | 32.25916 | -95.50883 | 32182 ft | 379 kts | 270° |
| 2026-05-06 00:26 | 32.25994 | -95.53994 | 31434 ft | 379 kts | 270° |
| 2026-05-06 00:27 | 32.26071 | -95.57114 | 30669 ft | 381 kts | 270° |
| 2026-05-06 00:27 | 32.26147 | -95.60256 | 29905 ft | 385 kts | 270° |
| 2026-05-06 00:27 | 32.26223 | -95.63428 | 29054 ft | 388 kts | 270° |
| 2026-05-06 00:27 | 32.26300 | -95.66658 | 28413 ft | 388 kts | 270° |
| 2026-05-06 00:28 | 32.26375 | -95.69784 | 27824 ft | 384 kts | 270° |
| 2026-05-06 00:28 | 32.26449 | -95.72930 | 27243 ft | 381 kts | 270° |
| 2026-05-06 00:28 | 32.26524 | -95.76008 | 27010 ft | 368 kts | 270° |
| 2026-05-06 00:28 | 32.26591 | -95.78971 | 26901 ft | 353 kts | 270° |
| 2026-05-06 00:29 | 32.26652 | -95.81808 | 26790 ft | 339 kts | 270° |
| 2026-05-06 00:29 | 32.26710 | -95.84534 | 26666 ft | 325 kts | 269° |
| 2026-05-06 00:29 | 32.26766 | -95.87175 | 26533 ft | 323 kts | 269° |
| 2026-05-06 00:29 | 32.26820 | -95.89841 | 26245 ft | 326 kts | 270° |
| 2026-05-06 00:30 | 32.26875 | -95.92508 | 25804 ft | 324 kts | 270° |
| 2026-05-06 00:30 | 32.26931 | -95.95162 | 25393 ft | 323 kts | 270° |
| 2026-05-06 00:30 | 32.26989 | -95.97809 | 25000 ft | 322 kts | 270° |
| 2026-05-06 00:30 | 32.27047 | -96.00445 | 24608 ft | 320 kts | 270° |
| 2026-05-06 00:31 | 32.27104 | -96.03069 | 24219 ft | 319 kts | 270° |
| 2026-05-06 00:31 | 32.27160 | -96.05688 | 23825 ft | 318 kts | 270° |
| 2026-05-06 00:31 | 32.27215 | -96.08289 | 23432 ft | 316 kts | 270° |
| 2026-05-06 00:31 | 32.27270 | -96.10875 | 23010 ft | 314 kts | 270° |
| 2026-05-06 00:32 | 32.27324 | -96.13451 | 22614 ft | 313 kts | 269° |
| 2026-05-06 00:32 | 32.27377 | -96.16017 | 22228 ft | 312 kts | 269° |
| 2026-05-06 00:32 | 32.27429 | -96.18577 | 21849 ft | 311 kts | 269° |
| 2026-05-06 00:32 | 32.27481 | -96.21136 | 21465 ft | 311 kts | 269° |
| 2026-05-06 00:33 | 32.27532 | -96.23682 | 21089 ft | 310 kts | 269° |
| 2026-05-06 00:33 | 32.27583 | -96.26226 | 20708 ft | 309 kts | 269° |
| 2026-05-06 00:33 | 32.27654 | -96.28763 | 20330 ft | 309 kts | 271° |
| 2026-05-06 00:33 | 32.28030 | -96.31277 | 19965 ft | 314 kts | 282° |
| 2026-05-06 00:34 | 32.28943 | -96.33638 | 19588 ft | 323 kts | 295° |
| 2026-05-06 00:34 | 32.30383 | -96.35721 | 19192 ft | 332 kts | 306° |
| 2026-05-06 00:34 | 32.32040 | -96.37636 | 18784 ft | 334 kts | 307° |
| 2026-05-06 00:34 | 32.33725 | -96.39532 | 18374 ft | 334 kts | 307° |
| 2026-05-06 00:35 | 32.35398 | -96.41426 | 17966 ft | 333 kts | 307° |
| 2026-05-06 00:35 | 32.37069 | -96.43330 | 17536 ft | 333 kts | 307° |
| 2026-05-06 00:35 | 32.38708 | -96.45206 | 17213 ft | 332 kts | 307° |
| 2026-05-06 00:35 | 32.40362 | -96.47103 | 16939 ft | 331 kts | 307° |
| 2026-05-06 00:36 | 32.42013 | -96.49001 | 16577 ft | 330 kts | 307° |
| 2026-05-06 00:36 | 32.43630 | -96.50853 | 16450 ft | 318 kts | 307° |
| 2026-05-06 00:36 | 32.45190 | -96.52639 | 16337 ft | 306 kts | 307° |
| 2026-05-06 00:36 | 32.46699 | -96.54375 | 16077 ft | 302 kts | 307° |
| 2026-05-06 00:37 | 32.48204 | -96.56120 | 15775 ft | 304 kts | 307° |
| 2026-05-06 00:37 | 32.49714 | -96.57871 | 15469 ft | 304 kts | 307° |
| 2026-05-06 00:37 | 32.51229 | -96.59611 | 15184 ft | 303 kts | 307° |
| 2026-05-06 00:37 | 32.52742 | -96.61340 | 14893 ft | 302 kts | 307° |
| 2026-05-06 00:38 | 32.54256 | -96.63072 | 14606 ft | 302 kts | 307° |
| 2026-05-06 00:38 | 32.55763 | -96.64798 | 14306 ft | 301 kts | 307° |
| 2026-05-06 00:38 | 32.57242 | -96.66487 | 14194 ft | 289 kts | 307° |
| 2026-05-06 00:38 | 32.58673 | -96.68093 | 14079 ft | 278 kts | 308° |
| 2026-05-06 00:39 | 32.60057 | -96.69641 | 13953 ft | 269 kts | 307° |
| 2026-05-06 00:39 | 32.61400 | -96.71150 | 13740 ft | 264 kts | 307° |
| 2026-05-06 00:39 | 32.62722 | -96.72643 | 13491 ft | 261 kts | 307° |
| 2026-05-06 00:39 | 32.64036 | -96.74131 | 13253 ft | 261 kts | 307° |
| 2026-05-06 00:40 | 32.65353 | -96.75622 | 13011 ft | 261 kts | 307° |
| 2026-05-06 00:40 | 32.66671 | -96.77113 | 12909 ft | 267 kts | 308° |
| 2026-05-06 00:40 | 32.68039 | -96.78677 | 12833 ft | 279 kts | 308° |
| 2026-05-06 00:40 | 32.69451 | -96.80283 | 12739 ft | 281 kts | 308° |
| 2026-05-06 00:41 | 32.70865 | -96.81884 | 12625 ft | 280 kts | 308° |
| 2026-05-06 00:41 | 32.72259 | -96.83459 | 12496 ft | 277 kts | 308° |
| 2026-05-06 00:41 | 32.73649 | -96.85036 | 12395 ft | 276 kts | 309° |
| 2026-05-06 00:41 | 32.75034 | -96.86610 | 12292 ft | 275 kts | 308° |
| 2026-05-06 00:42 | 32.76396 | -96.88155 | 12198 ft | 265 kts | 308° |
| 2026-05-06 00:42 | 32.77687 | -96.89614 | 12087 ft | 253 kts | 308° |
| 2026-05-06 00:42 | 32.79055 | -96.90917 | 11961 ft | 249 kts | 322° |
| 2026-05-06 00:42 | 32.80736 | -96.91512 | 11817 ft | 260 kts | 347° |
| 2026-05-06 00:43 | 32.82566 | -96.91568 | 11574 ft | 265 kts | 352° |
| 2026-05-06 00:43 | 32.84387 | -96.91531 | 11355 ft | 265 kts | 353° |
| 2026-05-06 00:43 | 32.86214 | -96.91494 | 11128 ft | 263 kts | 353° |
| 2026-05-06 00:43 | 32.88040 | -96.91466 | 10903 ft | 261 kts | 352° |
| 2026-05-06 00:44 | 32.89854 | -96.91446 | 10675 ft | 260 kts | 353° |
| 2026-05-06 00:44 | 32.91658 | -96.91429 | 10443 ft | 259 kts | 353° |
| 2026-05-06 00:44 | 32.93457 | -96.91415 | 10214 ft | 257 kts | 353° |
| 2026-05-06 00:44 | 32.95241 | -96.91402 | 9997 ft | 256 kts | 353° |
| 2026-05-06 00:45 | 32.97013 | -96.91391 | 9788 ft | 254 kts | 353° |
| 2026-05-06 00:45 | 32.98787 | -96.91380 | 9547 ft | 256 kts | 353° |
| 2026-05-06 00:45 | 33.00567 | -96.91377 | 9303 ft | 256 kts | 353° |
| 2026-05-06 00:45 | 33.02347 | -96.91367 | 9093 ft | 255 kts | 353° |
| 2026-05-06 00:46 | 33.04118 | -96.91352 | 8866 ft | 254 kts | 353° |
| 2026-05-06 00:46 | 33.05877 | -96.91338 | 8561 ft | 251 kts | 354° |
| 2026-05-06 00:46 | 33.07617 | -96.91382 | 8147 ft | 247 kts | 347° |
| 2026-05-06 00:46 | 33.09146 | -96.92096 | 7576 ft | 231 kts | 317° |
| 2026-05-06 00:47 | 33.10112 | -96.93552 | 6936 ft | 222 kts | 291° |
| 2026-05-06 00:47 | 33.10632 | -96.95281 | 6302 ft | 222 kts | 280° |
| 2026-05-06 00:47 | 33.10802 | -96.97100 | 5700 ft | 219 kts | 270° |
| 2026-05-06 00:47 | 33.10853 | -96.98907 | 5111 ft | 217 kts | 268° |
| 2026-05-06 00:48 | 33.10781 | -97.00694 | 4410 ft | 216 kts | 250° |
| 2026-05-06 00:48 | 33.09877 | -97.02034 | 3946 ft | 207 kts | 210° |
| 2026-05-06 00:48 | 33.08570 | -97.02501 | 3769 ft | 190 kts | 187° |
| 2026-05-06 00:48 | 33.07289 | -97.02484 | 3557 ft | 180 kts | 181° |
| 2026-05-06 00:49 | 33.06061 | -97.02498 | 3321 ft | 173 kts | 186° |
| 2026-05-06 00:49 | 33.04880 | -97.02520 | 3109 ft | 169 kts | 185° |
| 2026-05-06 00:49 | 33.03703 | -97.02528 | 2855 ft | 171 kts | 182° |
| 2026-05-06 00:49 | 33.02909 | -97.02532 | 2705 ft | 174 kts | 183° |
| 2026-05-06 00:50 | 33.01727 | -97.02539 | 2484 ft | 172 kts | 184° |
| 2026-05-06 00:50 | 33.00551 | -97.02546 | 2279 ft | 166 kts | 183° |
| 2026-05-06 00:50 | 32.99429 | -97.02553 | 2062 ft | 157 kts | 184° |
| 2026-05-06 00:50 | 32.98327 | -97.02562 | 1840 ft | 159 kts | 182° |
| 2026-05-06 00:51 | 32.97212 | -97.02567 | 1649 ft | 162 kts | 182° |
| 2026-05-06 00:51 | 32.96080 | -97.02573 | 1440 ft | 164 kts | 181° |
| 2026-05-06 00:51 | 32.94951 | -97.02578 | 1246 ft | 160 kts | 180° |
| 2026-05-06 00:51 | 32.93855 | -97.02563 | 1046 ft | 157 kts | 180° |
| 2026-05-06 00:52 | 32.92746 | -97.02572 | 829 ft | 159 kts | 184° |
| 2026-05-06 00:52 | 32.91651 | -97.02592 | 641 ft | 157 kts | 183° |
| 2026-05-06 00:52 | 32.90618 | -97.02604 | 582 ft | 123 kts | 181° |
| 2026-05-06 00:52 | 32.90024 | -97.02607 | 580 ft | 49 kts | 180° |
| 2026-05-06 00:53 | 32.89697 | -97.02621 | 577 ft | 38 kts | 193° |
| 2026-05-06 00:53 | 32.89544 | -97.02700 | 580 ft | 17 kts | 210° |
| 2026-05-06 00:53 | 32.89437 | -97.02776 | 581 ft | 14 kts | 210° |
| 2026-05-06 00:53 | 32.89395 | -97.02818 | 579 ft | 6 kts | 244° |
| 2026-05-06 00:54 | 32.89394 | -97.02861 | 578 ft | 0 kts | 272° |
| 2026-05-06 00:54 | 32.89394 | -97.02869 | 579 ft | 6 kts | 272° |
| 2026-05-06 00:54 | 32.89393 | -97.02968 | 582 ft | 13 kts | 269° |
| 2026-05-06 00:54 | 32.89392 | -97.03084 | 582 ft | 15 kts | 269° |
| 2026-05-06 00:55 | 32.89344 | -97.03189 | 586 ft | 16 kts | 203° |
| 2026-05-06 00:55 | 32.89216 | -97.03193 | 584 ft | 21 kts | 179° |
| 2026-05-06 00:55 | 32.89056 | -97.03198 | 580 ft | 26 kts | 180° |
| 2026-05-06 00:55 | 32.88862 | -97.03198 | 581 ft | 29 kts | 180° |
| 2026-05-06 00:56 | 32.88666 | -97.03199 | 580 ft | 19 kts | 179° |
| 2026-05-06 00:56 | 32.88608 | -97.03235 | 586 ft | 12 kts | 248° |
| 2026-05-06 00:56 | 32.88601 | -97.03357 | 588 ft | 14 kts | 270° |
| 2026-05-06 00:56 | 32.88603 | -97.03501 | 590 ft | 19 kts | 271° |
| 2026-05-06 00:57 | 32.88604 | -97.03664 | 592 ft | 20 kts | 270° |
| 2026-05-06 00:57 | 32.88604 | -97.03820 | 601 ft | 17 kts | 270° |
| 2026-05-06 00:57 | 32.88604 | -97.03951 | 617 ft | 17 kts | 269° |
| 2026-05-06 00:57 | 32.88604 | -97.04112 | 617 ft | 22 kts | 270° |
| 2026-05-06 00:58 | 32.88605 | -97.04306 | 615 ft | 26 kts | 270° |
| 2026-05-06 00:58 | 32.88606 | -97.04545 | 597 ft | 31 kts | 270° |
| 2026-05-06 00:58 | 32.88607 | -97.04771 | 593 ft | 14 kts | 269° |
| 2026-05-06 00:58 | 32.88624 | -97.04881 | 595 ft | 12 kts | 322° |
| 2026-05-06 00:59 | 32.88719 | -97.04892 | 593 ft | 16 kts | 360° |
| 2026-05-06 00:59 | 32.88838 | -97.04891 | 594 ft | 18 kts | 0° |
| 2026-05-06 00:59 | 32.88965 | -97.04890 | 596 ft | 19 kts | 0° |
| 2026-05-06 00:59 | 32.89097 | -97.04890 | 597 ft | 20 kts | 360° |
| 2026-05-06 01:00 | 32.89237 | -97.04890 | 599 ft | 20 kts | 0° |
| 2026-05-06 01:00 | 32.89375 | -97.04890 | 603 ft | 19 kts | 0° |
| 2026-05-06 01:00 | 32.89512 | -97.04888 | 613 ft | 21 kts | 0° |
| 2026-05-06 01:00 | 32.89606 | -97.04876 | 617 ft | 9 kts | 39° |
| 2026-05-06 01:01 | 32.89619 | -97.04801 | 614 ft | 11 kts | 88° |
| 2026-05-06 01:01 | 32.89623 | -97.04700 | 603 ft | 9 kts | 91° |
| 2026-05-06 01:01 | 32.89600 | -97.04668 | 604 ft | 5 kts | 177° |
| 2026-05-06 01:01 | 32.89530 | -97.04668 | 604 ft | 8 kts | 173° |
| 2026-05-06 01:02 | 32.89508 | -97.04631 | 621 ft | 6 kts | 88° |
| 2026-05-06 01:02 | 32.89523 | -97.04600 | 621 ft | 5 kts | 52° |
| 2026-05-06 01:02 | 32.89536 | -97.04580 | 616 ft | 2 kts | 54° |
| 2026-05-06 01:02 | 32.89538 | -97.04577 | 616 ft | 0 kts | 54° |